Nerinx, Kentucky
Current Conditions -  °F | °C
As of 11:55 AM on Thursday 30 Oct 2014 (Local Time) from KDVK Reporting Station
Broken Clouds Broken Clouds  
Wind Chill: 50°   Ceiling: 3100
Heat Index: 50°   Visibility: 10mi
Dew Point: 36°   Wind: 6mph
Humidity: 58%   Direction: 90°E
Pressure: 30.17"   Gusts: NA
Location:  37.66°N, 85.4°W
Report Text: KDVK 301555Z AUTO 09005KT 10SM BKN031 10/02 A3017 RMK AO2
Loading
Personal Weather Stations






























Interactive Weather Map
Tropical Storm Tracking
New forecast layout! Learn more

10-Day Weather Forecast

Advertisements
Track Severe Weather on mobile